Time;durP1;ratioP1;P1;durP2;ratioP2;P2;SDS_P1;SDS_P2;PMS_P1;PMS_P2;Temp;Humidity;BMP_temperature;BMP_pressure;BME280_temperature;BME280_humidity;BME280_pressure;Samples;Min_cycle;Max_cycle;Signal;HPM_P1;HPM_P2
2022/08/30 00:01:01;;;;;;;1.53;0.80;;;19.50;99.90;;;;;;5095592;28;20448;-76
2022/08/30 00:01:59;;;;;;;6.93;1.80;;;19.50;99.90;;;;;;5094974;28;20543;-76
2022/08/30 00:04:26;;;;;;;3.40;1.03;;;19.50;99.90;;;;;;5095099;28;20476;-76
2022/08/30 00:06:53;;;;;;;1.20;1.10;;;19.50;99.90;;;;;;5095436;28;20447;-76
2022/08/30 00:09:20;;;;;;;1.07;0.87;;;19.50;99.90;;;;;;5095088;28;20966;-76
2022/08/30 00:11:46;;;;;;;1.10;1.00;;;19.50;99.90;;;;;;5094965;28;21007;-76
2022/08/30 00:14:13;;;;;;;2.30;1.00;;;19.50;99.90;;;;;;5095300;28;20440;-76
2022/08/30 00:16:40;;;;;;;1.10;0.80;;;19.50;99.90;;;;;;5095220;28;20491;-76
2022/08/30 00:19:08;;;;;;;11.80;1.20;;;19.40;99.90;;;;;;5095167;28;20436;-77
2022/08/30 00:21:34;;;;;;;1.87;1.00;;;19.40;99.90;;;;;;5095089;28;20542;-77
2022/08/30 00:24:01;;;;;;;0.70;0.70;;;19.40;99.90;;;;;;5095027;28;20483;-77
2022/08/30 00:26:28;;;;;;;1.47;1.10;;;19.40;99.90;;;;;;5094571;28;21025;-77
2022/08/30 00:28:55;;;;;;;1.73;0.90;;;19.40;99.90;;;;;;5094688;28;20808;-77
2022/08/30 00:31:21;;;;;;;1.23;1.00;;;19.30;99.90;;;;;;5094895;28;20451;-77
2022/08/30 00:33:48;;;;;;;1.23;0.97;;;19.30;99.90;;;;;;5094911;28;20812;-82
2022/08/30 00:36:16;;;;;;;1.80;0.70;;;19.20;99.90;;;;;;5094899;28;20455;-81
2022/08/30 00:38:43;;;;;;;1.43;0.90;;;19.20;99.90;;;;;;5094795;28;20448;-81
2022/08/30 00:41:10;;;;;;;2.00;1.00;;;19.10;99.90;;;;;;5094675;28;20452;-81
2022/08/30 00:43:37;;;;;;;3.13;1.50;;;19.10;99.90;;;;;;5094650;28;20479;-81
2022/08/30 00:46:06;;;;;;;1.37;0.73;;;19.10;99.90;;;;;;5094349;28;20793;-81
2022/08/30 00:48:36;;;;;;;1.60;1.00;;;19.00;99.90;;;;;;5094637;28;20539;-82
2022/08/30 00:51:07;;;;;;;2.80;1.37;;;18.90;99.90;;;;;;5094547;28;20440;-81
2022/08/30 00:53:40;;;;;;;0.80;0.80;;;18.90;99.90;;;;;;5094298;28;20900;-81
2022/08/30 00:56:07;;;;;;;3.30;0.90;;;18.90;99.90;;;;;;5094542;28;20432;-81
2022/08/30 00:58:38;;;;;;;1.07;0.97;;;18.90;99.90;;;;;;5095149;28;20459;-82
2022/08/30 01:01:07;;;;;;;3.13;0.87;;;18.90;99.90;;;;;;5094112;28;20440;-81
2022/08/30 01:03:34;;;;;;;2.10;1.23;;;18.80;99.90;;;;;;5094805;28;20975;-81
2022/08/30 01:06:04;;;;;;;0.60;0.60;;;18.80;99.90;;;;;;5093986;28;20966;-77
2022/08/30 01:08:30;;;;;;;1.83;1.57;;;18.80;99.90;;;;;;5094095;28;20440;-76
2022/08/30 01:10:59;;;;;;;1.97;1.00;;;18.70;99.90;;;;;;5094232;28;20456;-76
2022/08/30 01:13:27;;;;;;;1.20;0.87;;;18.70;99.90;;;;;;5093835;28;20467;-76
2022/08/30 01:15:55;;;;;;;1.33;0.80;;;18.70;99.90;;;;;;5093823;28;20451;-76
2022/08/30 01:18:24;;;;;;;2.03;1.30;;;18.60;99.90;;;;;;5094665;28;20459;-76
2022/08/30 01:21:00;;;;;;;3.30;1.53;;;18.60;99.90;;;;;;5094065;28;20491;-76
2022/08/30 01:23:29;;;;;;;0.80;0.70;;;18.50;99.90;;;;;;5093890;28;20487;-76
2022/08/30 01:25:56;;;;;;;2.43;1.00;;;18.50;99.90;;;;;;5093497;28;21009;-76
2022/08/30 01:28:26;;;;;;;1.83;1.03;;;18.50;99.90;;;;;;5093943;28;20440;-76
2022/08/30 01:30:53;;;;;;;1.23;0.97;;;18.50;99.90;;;;;;5093629;28;20903;-76
2022/08/30 01:33:20;;;;;;;1.50;1.03;;;18.40;99.90;;;;;;5093788;28;20467;-76
2022/08/30 01:35:51;;;;;;;1.57;0.87;;;18.30;99.90;;;;;;5093550;28;20440;-77
2022/08/30 01:38:19;;;;;;;0.90;0.77;;;18.30;99.90;;;;;;5093851;28;20796;-76
2022/08/30 01:40:47;;;;;;;0.80;0.80;;;18.20;99.90;;;;;;5093743;28;20448;-76
2022/08/30 01:43:16;;;;;;;3.13;0.80;;;18.20;99.90;;;;;;5093571;28;20476;-76
2022/08/30 01:45:43;;;;;;;2.30;1.20;;;18.10;99.90;;;;;;5093365;28;20796;-76
2022/08/30 01:48:11;;;;;;;2.03;1.10;;;18.10;99.90;;;;;;5093655;28;20446;-76
2022/08/30 01:50:38;;;;;;;0.73;0.60;;;18.10;99.90;;;;;;5093628;28;20444;-76
2022/08/30 01:53:05;;;;;;;2.53;1.40;;;18.00;99.90;;;;;;5093527;28;20455;-76
2022/08/30 01:55:32;;;;;;;3.17;1.30;;;18.00;99.90;;;;;;5093557;28;20450;-77
2022/08/30 01:58:00;;;;;;;3.73;1.17;;;18.00;99.90;;;;;;5093575;28;20588;-77
2022/08/30 02:00:26;;;;;;;2.20;1.03;;;18.00;99.90;;;;;;5093186;28;20807;-77
2022/08/30 02:02:53;;;;;;;0.77;0.77;;;17.90;99.90;;;;;;5093619;28;20470;-76
2022/08/30 02:05:20;;;;;;;2.03;0.83;;;17.90;99.90;;;;;;5093451;28;20547;-76
2022/08/30 02:07:47;;;;;;;2.13;1.03;;;17.80;99.90;;;;;;5093108;28;20799;-76
2022/08/30 02:10:14;;;;;;;1.27;0.77;;;17.80;99.90;;;;;;5093421;28;20444;-76
2022/08/30 02:12:41;;;;;;;1.00;0.90;;;17.80;99.90;;;;;;5093309;28;20460;-76
2022/08/30 02:15:11;;;;;;;1.83;0.87;;;17.70;99.90;;;;;;5093324;28;20439;-76
2022/08/30 02:17:38;;;;;;;2.97;1.20;;;17.70;99.90;;;;;;5093554;28;20474;-76
2022/08/30 02:20:06;;;;;;;1.17;0.90;;;17.70;99.90;;;;;;5095876;28;20447;-76
2022/08/30 02:22:33;;;;;;;2.13;1.47;;;17.70;99.90;;;;;;5097367;28;20535;-76
2022/08/30 02:25:00;;;;;;;0.97;0.90;;;17.60;99.90;;;;;;5097357;28;20852;-76
2022/08/30 02:27:27;;;;;;;4.40;1.40;;;17.60;99.90;;;;;;5097438;28;20500;-76
2022/08/30 02:29:54;;;;;;;0.80;0.80;;;17.50;99.90;;;;;;5096987;28;20447;-76
2022/08/30 02:32:22;;;;;;;1.23;0.97;;;17.50;99.90;;;;;;5097188;28;20471;-76
2022/08/30 02:34:48;;;;;;;2.57;1.10;;;17.50;99.90;;;;;;5096912;28;20958;-77
2022/08/30 02:37:16;;;;;;;0.80;0.67;;;17.50;99.90;;;;;;5097198;28;20450;-77
2022/08/30 02:39:42;;;;;;;2.40;1.10;;;17.50;99.90;;;;;;5096835;28;20439;-76
2022/08/30 02:42:09;;;;;;;3.27;0.73;;;17.40;99.90;;;;;;5096730;28;20998;-76
2022/08/30 02:44:36;;;;;;;1.43;0.90;;;17.40;99.90;;;;;;5096672;28;21013;-76
2022/08/30 02:47:03;;;;;;;1.57;1.23;;;17.40;99.90;;;;;;5096993;28;20446;-76
2022/08/30 02:49:31;;;;;;;0.90;0.70;;;17.40;99.90;;;;;;5096944;28;20478;-76
2022/08/30 02:51:58;;;;;;;1.53;1.00;;;17.40;99.90;;;;;;5096836;28;20466;-77
2022/08/30 02:54:25;;;;;;;1.10;0.67;;;17.40;99.90;;;;;;5097088;28;20448;-76
2022/08/30 02:56:52;;;;;;;0.97;0.83;;;17.40;99.90;;;;;;5096476;28;20970;-76
2022/08/30 02:59:19;;;;;;;1.40;0.97;;;17.40;99.90;;;;;;5096733;28;20454;-76
2022/08/30 03:01:46;;;;;;;0.80;0.67;;;17.40;99.90;;;;;;5096638;28;20474;-76
2022/08/30 03:04:13;;;;;;;1.33;1.00;;;17.40;99.90;;;;;;5096625;28;20479;-76
2022/08/30 03:06:42;;;;;;;0.77;0.73;;;17.30;99.90;;;;;;5096620;28;20451;-76
2022/08/30 03:09:09;;;;;;;1.37;0.80;;;17.30;99.90;;;;;;5096591;28;20854;-76
2022/08/30 03:11:36;;;;;;;1.17;0.97;;;17.30;99.90;;;;;;5096201;28;21001;-76
2022/08/30 03:14:03;;;;;;;1.50;0.90;;;17.20;99.90;;;;;;5096205;28;20947;-76
2022/08/30 03:16:30;;;;;;;0.90;0.70;;;17.20;99.90;;;;;;5096126;28;20816;-76
2022/08/30 03:18:57;;;;;;;1.77;0.73;;;17.20;99.90;;;;;;5096466;28;20459;-77
2022/08/30 03:21:24;;;;;;;1.10;1.10;;;17.20;99.90;;;;;;5096215;28;20450;-76
2022/08/30 03:23:52;;;;;;;2.97;1.40;;;17.20;99.90;;;;;;5096303;28;20838;-76
2022/08/30 03:26:18;;;;;;;1.67;0.90;;;17.10;99.90;;;;;;5095781;28;20475;-77
2022/08/30 03:28:45;;;;;;;2.10;1.10;;;17.10;99.90;;;;;;5096247;28;20444;-76
2022/08/30 03:31:12;;;;;;;1.47;0.90;;;17.10;99.90;;;;;;5095808;28;20943;-76
2022/08/30 03:33:40;;;;;;;1.30;1.20;;;17.10;99.90;;;;;;5096190;28;20467;-77
2022/08/30 03:36:07;;;;;;;2.40;1.10;;;17.00;99.90;;;;;;5096067;28;20443;-77
2022/08/30 03:38:34;;;;;;;2.70;1.00;;;17.10;99.90;;;;;;5096014;28;20448;-77
2022/08/30 03:41:03;;;;;;;2.87;1.23;;;17.10;99.90;;;;;;5096025;28;20448;-76
2022/08/30 03:43:32;;;;;;;4.23;0.90;;;17.00;99.90;;;;;;5095757;28;20474;-76
2022/08/30 03:45:59;;;;;;;0.80;0.80;;;17.00;99.90;;;;;;5095837;28;20448;-76
2022/08/30 03:48:26;;;;;;;3.30;1.33;;;17.00;99.90;;;;;;5095836;28;20447;-76
2022/08/30 03:50:53;;;;;;;1.60;1.00;;;17.00;99.90;;;;;;5095799;28;20456;-78
2022/08/30 03:53:20;;;;;;;0.90;0.90;;;16.90;99.90;;;;;;5095673;28;20541;-76
2022/08/30 03:55:47;;;;;;;1.37;1.27;;;16.90;99.90;;;;;;5095358;28;20829;-76
2022/08/30 03:58:15;;;;;;;1.90;1.20;;;16.80;99.90;;;;;;5095590;28;20447;-76
2022/08/30 04:00:42;;;;;;;2.03;1.27;;;16.80;99.90;;;;;;5095662;28;20460;-77
2022/08/30 04:03:08;;;;;;;0.67;0.60;;;16.80;99.90;;;;;;5095184;28;20460;-77
2022/08/30 04:05:35;;;;;;;0.80;0.70;;;16.80;99.90;;;;;;5095449;28;20506;-76
2022/08/30 04:08:03;;;;;;;1.90;0.80;;;16.80;99.90;;;;;;5095504;28;20449;-76
2022/08/30 04:10:30;;;;;;;1.50;1.23;;;16.80;99.90;;;;;;5095466;28;20814;-76
2022/08/30 04:12:56;;;;;;;1.57;1.10;;;16.80;99.90;;;;;;5095292;28;20471;-77
2022/08/30 04:15:24;;;;;;;1.30;0.90;;;16.70;99.90;;;;;;5094993;28;20863;-77
2022/08/30 04:17:52;;;;;;;1.00;0.90;;;16.80;99.90;;;;;;5095288;28;20440;-77
2022/08/30 04:20:19;;;;;;;2.00;0.87;;;16.70;99.90;;;;;;5095204;28;20448;-78
2022/08/30 04:22:46;;;;;;;3.50;0.90;;;16.80;99.90;;;;;;5094766;28;20862;-77
2022/08/30 04:25:13;;;;;;;1.20;1.10;;;16.70;99.90;;;;;;5094847;28;20537;-77
2022/08/30 04:27:40;;;;;;;1.53;1.20;;;16.70;99.90;;;;;;5094816;28;20439;-77
2022/08/30 04:30:08;;;;;;;3.47;1.30;;;16.60;99.90;;;;;;5094999;28;20448;-77
2022/08/30 04:32:37;;;;;;;3.33;0.70;;;16.60;99.90;;;;;;5094899;28;20490;-77
2022/08/30 04:35:05;;;;;;;1.93;1.33;;;16.60;99.90;;;;;;5094606;28;20451;-77
2022/08/30 04:37:31;;;;;;;1.23;0.93;;;16.60;99.90;;;;;;5094870;28;20446;-77
2022/08/30 04:39:59;;;;;;;1.43;1.33;;;16.60;99.90;;;;;;5094839;28;20459;-77
2022/08/30 04:42:30;;;;;;;1.67;0.80;;;16.60;99.90;;;;;;5094226;28;20495;-77
2022/08/30 04:44:56;;;;;;;0.80;0.60;;;16.60;99.90;;;;;;5094688;28;20471;-77
2022/08/30 04:47:23;;;;;;;1.07;0.73;;;16.60;99.90;;;;;;5094375;28;20444;-77
2022/08/30 04:49:52;;;;;;;0.60;0.60;;;16.60;99.90;;;;;;5094668;28;20451;-77
2022/08/30 04:52:19;;;;;;;1.80;0.83;;;16.60;99.90;;;;;;5094556;28;20471;-77
2022/08/30 04:54:45;;;;;;;1.50;0.87;;;16.60;99.90;;;;;;5094431;28;20463;-77
2022/08/30 04:57:12;;;;;;;1.67;0.97;;;16.60;99.90;;;;;;5094562;28;20444;-77
2022/08/30 04:59:39;;;;;;;1.10;0.70;;;16.70;99.90;;;;;;5094501;28;20446;-77
2022/08/30 05:02:06;;;;;;;0.97;0.90;;;16.70;99.90;;;;;;5094392;28;20464;-77
2022/08/30 05:04:33;;;;;;;1.80;1.07;;;16.70;99.90;;;;;;5094319;28;20498;-77
2022/08/30 05:07:01;;;;;;;1.27;1.17;;;16.70;99.90;;;;;;5094356;28;20447;-77
2022/08/30 05:09:28;;;;;;;2.00;1.10;;;16.70;99.90;;;;;;5094288;28;20452;-77
2022/08/30 05:11:54;;;;;;;2.47;1.30;;;16.80;99.90;;;;;;5093876;28;20459;-77
2022/08/30 05:14:21;;;;;;;1.13;0.70;;;16.80;99.90;;;;;;5094188;28;20470;-77
2022/08/30 05:16:48;;;;;;;0.80;0.73;;;16.90;99.90;;;;;;5093862;28;20440;-77
2022/08/30 05:19:14;;;;;;;1.80;1.30;;;16.90;99.90;;;;;;5094164;28;20443;-77
2022/08/30 05:21:41;;;;;;;2.03;0.70;;;17.00;99.90;;;;;;5093695;28;20978;-75
2022/08/30 05:24:09;;;;;;;1.27;0.90;;;17.00;99.90;;;;;;5093946;28;20476;-75
2022/08/30 05:26:38;;;;;;;3.33;0.70;;;17.10;99.90;;;;;;5093765;28;20478;-75
2022/08/30 05:29:05;;;;;;;1.83;0.70;;;17.20;99.90;;;;;;5093638;28;21004;-78
2022/08/30 05:31:33;;;;;;;1.17;0.80;;;17.20;99.90;;;;;;5093877;28;20467;-78
2022/08/30 05:34:01;;;;;;;1.20;0.70;;;17.30;99.90;;;;;;5093901;28;20440;-78
2022/08/30 05:36:30;;;;;;;1.20;1.00;;;17.30;99.90;;;;;;5093537;28;20447;-78
2022/08/30 05:38:57;;;;;;;1.33;1.23;;;17.30;99.90;;;;;;5094099;28;20841;-78
2022/08/30 05:41:26;;;;;;;1.67;1.10;;;17.40;99.90;;;;;;5093693;28;20450;-78
2022/08/30 05:43:53;;;;;;;1.93;0.80;;;17.40;99.90;;;;;;5093660;28;20451;-76
2022/08/30 05:46:20;;;;;;;1.47;1.20;;;17.40;99.90;;;;;;5093376;28;20939;-76
2022/08/30 05:48:49;;;;;;;1.40;1.30;;;17.40;99.90;;;;;;5093625;28;20471;-76
2022/08/30 05:51:17;;;;;;;2.67;1.00;;;17.40;99.90;;;;;;5093236;28;20788;-76
2022/08/30 05:53:46;;;;;;;2.10;1.03;;;17.50;99.90;;;;;;5092752;28;20452;-76
2022/08/30 05:56:15;;;;;;;2.67;1.20;;;17.50;99.90;;;;;;5093559;28;20440;-77
2022/08/30 05:58:43;;;;;;;1.33;0.97;;;17.50;99.90;;;;;;5093546;28;20444;-77
2022/08/30 06:01:19;;;;;;;1.77;0.97;;;17.60;99.90;;;;;;5093143;28;20440;-77
2022/08/30 06:03:46;;;;;;;1.83;1.63;;;17.60;99.90;;;;;;5093541;28;20428;-77
2022/08/30 06:06:13;;;;;;;1.10;0.90;;;17.70;99.90;;;;;;5093360;28;21010;-77
2022/08/30 06:08:39;;;;;;;3.37;1.67;;;17.80;99.90;;;;;;5093380;28;20447;-77
2022/08/30 06:11:06;;;;;;;1.70;1.00;;;17.80;99.90;;;;;;5093424;28;20448;-77
2022/08/30 06:13:33;;;;;;;1.20;0.83;;;17.90;99.90;;;;;;5093174;28;20443;-77
2022/08/30 06:16:01;;;;;;;0.80;0.80;;;17.90;99.90;;;;;;5093355;28;20442;-77
2022/08/30 06:18:28;;;;;;;1.43;1.27;;;18.00;99.90;;;;;;5093381;28;20439;-77
2022/08/30 06:20:54;;;;;;;0.73;0.73;;;18.10;99.90;;;;;;5093339;28;20444;-77
2022/08/30 06:23:21;;;;;;;1.53;1.10;;;18.20;99.90;;;;;;5093270;28;20470;-77
2022/08/30 06:25:48;;;;;;;2.80;1.33;;;18.40;99.90;;;;;;5092996;28;20492;-77
2022/08/30 06:28:15;;;;;;;2.20;1.27;;;18.50;99.90;;;;;;5093510;28;20436;-77
2022/08/30 06:30:43;;;;;;;1.37;1.03;;;18.80;99.90;;;;;;5092925;28;20452;-77
2022/08/30 06:33:11;;;;;;;3.13;1.77;;;19.00;99.90;;;;;;5093175;28;20467;-77
2022/08/30 06:35:38;;;;;;;1.40;1.30;;;19.20;99.90;;;;;;5093183;28;20447;-77
2022/08/30 06:38:05;;;;;;;3.30;1.40;;;19.40;99.90;;;;;;5093184;28;20448;-76
2022/08/30 06:40:32;;;;;;;1.73;1.27;;;19.50;99.90;;;;;;5093157;28;20796;-76
2022/08/30 06:42:59;;;;;;;0.93;0.93;;;19.70;99.90;;;;;;5092757;28;20987;-76
2022/08/30 06:45:25;;;;;;;3.80;1.50;;;19.80;99.90;;;;;;5093293;28;20472;-77
2022/08/30 06:47:52;;;;;;;3.37;1.20;;;19.90;99.90;;;;;;5092806;28;20943;-77
2022/08/30 06:50:20;;;;;;;5.20;1.20;;;20.00;99.90;;;;;;5093129;28;20440;-73
2022/08/30 06:52:47;;;;;;;2.53;1.70;;;20.20;99.90;;;;;;5092997;28;20466;-74
2022/08/30 06:55:15;;;;;;;1.57;1.10;;;20.30;99.90;;;;;;5092769;28;20431;-74
2022/08/30 06:57:42;;;;;;;3.93;2.10;;;20.40;99.90;;;;;;5093018;28;20439;-74
2022/08/30 07:00:11;;;;;;;1.83;1.20;;;20.50;99.90;;;;;;5092982;28;20470;-73
2022/08/30 07:02:39;;;;;;;3.07;1.20;;;20.50;99.90;;;;;;5092972;28;20470;-74
2022/08/30 07:05:07;;;;;;;2.43;1.43;;;20.70;99.90;;;;;;5093722;28;20470;-74
2022/08/30 07:07:35;;;;;;;3.83;1.43;;;20.90;99.90;;;;;;5096689;28;20469;-75
2022/08/30 07:10:02;;;;;;;2.33;1.43;;;21.10;99.90;;;;;;5096609;28;20455;-74
2022/08/30 07:12:30;;;;;;;2.37;1.70;;;21.30;99.90;;;;;;5096516;28;20464;-74
2022/08/30 07:14:56;;;;;;;3.73;1.97;;;21.60;99.90;;;;;;5096213;28;20942;-74
2022/08/30 07:20:09;;;;;;;1.87;1.30;;;22.00;99.90;;;;;;5096209;28;20400;-75
2022/08/30 07:22:37;;;;;;;2.30;1.00;;;22.30;99.90;;;;;;5096275;28;20474;-75
2022/08/30 07:25:04;;;;;;;4.17;2.17;;;22.50;99.90;;;;;;5096012;28;20570;-75
2022/08/30 07:27:31;;;;;;;2.20;1.37;;;22.60;99.90;;;;;;5096307;28;20428;-75
2022/08/30 07:29:59;;;;;;;2.80;1.30;;;22.60;99.90;;;;;;5096726;28;20451;-74
2022/08/30 07:32:26;;;;;;;3.40;1.20;;;22.60;99.90;;;;;;5096121;28;20316;-74
2022/08/30 07:34:53;;;;;;;1.93;1.60;;;22.50;99.90;;;;;;5096139;28;20440;-74
2022/08/30 07:37:20;;;;;;;1.60;1.13;;;22.50;99.90;;;;;;5095816;28;20961;-74
2022/08/30 07:39:48;;;;;;;2.83;1.50;;;22.30;99.90;;;;;;5096270;28;20450;-75
2022/08/30 07:42:15;;;;;;;1.10;1.00;;;22.20;99.90;;;;;;5096124;28;20486;-74
2022/08/30 07:44:42;;;;;;;4.30;1.63;;;22.10;99.90;;;;;;5095882;28;20450;-74
2022/08/30 07:47:09;;;;;;;1.30;1.20;;;22.10;99.90;;;;;;5096209;28;20451;-77
2022/08/30 07:49:36;;;;;;;1.20;1.10;;;22.10;99.90;;;;;;5095882;28;20446;-77
2022/08/30 07:52:03;;;;;;;3.63;1.70;;;22.10;99.90;;;;;;5095767;28;20464;-77
2022/08/30 07:54:30;;;;;;;2.40;1.70;;;22.10;99.90;;;;;;5095819;28;20454;-77
2022/08/30 07:56:58;;;;;;;3.43;1.87;;;22.00;99.90;;;;;;5095423;28;20688;-77
2022/08/30 07:59:25;;;;;;;2.03;1.40;;;22.00;99.90;;;;;;5095327;28;20829;-77
2022/08/30 08:01:52;;;;;;;2.60;1.73;;;22.00;99.90;;;;;;5095513;28;20545;-77
2022/08/30 08:04:19;;;;;;;1.20;1.10;;;22.10;99.90;;;;;;5095235;28;20443;-77
2022/08/30 08:06:46;;;;;;;4.33;1.40;;;22.20;99.90;;;;;;5095465;28;20472;-77
2022/08/30 08:09:13;;;;;;;3.27;1.77;;;22.30;99.90;;;;;;5095481;28;20446;-77
2022/08/30 08:11:40;;;;;;;1.43;1.13;;;22.40;99.90;;;;;;5095357;28;20225;-77
2022/08/30 08:14:08;;;;;;;1.60;1.50;;;22.70;99.90;;;;;;5095308;28;20496;-77
2022/08/30 08:16:36;;;;;;;1.77;1.30;;;23.00;99.90;;;;;;5094475;28;20439;-77
2022/08/30 08:19:07;;;;;;;4.00;1.70;;;23.10;99.90;;;;;;5094921;28;20943;-77
2022/08/30 08:21:35;;;;;;;3.23;1.70;;;23.20;99.90;;;;;;5095605;28;20517;-77
2022/08/30 08:24:02;;;;;;;2.90;1.30;;;23.30;99.90;;;;;;5095229;28;20252;-77
2022/08/30 08:26:29;;;;;;;2.03;1.30;;;23.50;99.90;;;;;;5094644;28;20510;-77
2022/08/30 08:28:57;;;;;;;3.13;1.63;;;23.50;99.90;;;;;;5095215;28;20197;-77
2022/08/30 08:31:27;;;;;;;5.00;2.07;;;23.60;99.90;;;;;;5094713;28;20564;-77
2022/08/30 08:33:54;;;;;;;1.53;1.10;;;23.80;99.90;;;;;;5094734;28;20710;-77
2022/08/30 08:36:22;;;;;;;1.05;1.00;;;24.00;99.90;;;;;;5094656;28;20547;-77
2022/08/30 08:38:49;;;;;;;1.23;1.08;;;24.00;99.90;;;;;;5095074;28;20208;-77
2022/08/30 08:41:31;;;;;;;2.30;1.30;;;24.10;99.90;;;;;;5094904;28;20205;-77
2022/08/30 08:43:58;;;;;;;1.97;1.00;;;24.00;99.90;;;;;;5094616;28;20589;-77
2022/08/30 08:46:33;;;;;;;1.83;1.73;;;23.90;99.90;;;;;;5094412;28;20813;-77
2022/08/30 08:49:03;;;;;;;1.38;1.20;;;23.90;99.90;;;;;;5094462;28;20671;-77
2022/08/30 08:54:24;;;;;;;1.47;1.20;;;24.20;99.90;;;;;;5094804;28;20179;-77
2022/08/30 08:56:51;;;;;;;2.55;1.30;;;24.40;99.90;;;;;;5094210;28;20181;-77
2022/08/30 08:59:18;;;;;;;1.83;1.70;;;24.60;99.90;;;;;;5094513;28;20208;-77
2022/08/30 09:01:47;;;;;;;2.92;1.60;;;24.60;99.90;;;;;;5094408;28;20555;-77
2022/08/30 09:04:17;;;;;;;2.05;1.20;;;24.60;99.90;;;;;;5094181;28;20204;-77
2022/08/30 09:06:52;;;;;;;2.35;1.42;;;24.90;99.90;;;;;;5094010;28;20575;-77
2022/08/30 09:09:23;;;;;;;2.45;1.35;;;25.40;99.90;;;;;;5094340;28;20192;-77
2022/08/30 09:11:50;;;;;;;1.65;1.23;;;25.90;99.90;;;;;;5094554;28;20221;-77
2022/08/30 09:14:19;;;;;;;2.10;1.27;;;26.30;99.90;;;;;;5094205;28;20209;-77
2022/08/30 09:17:04;;;;;;;2.22;1.40;;;26.40;99.90;;;;;;5094187;28;20696;-77
2022/08/30 09:19:38;;;;;;;2.67;1.75;;;26.50;99.90;;;;;;5092834;28;20283;-78
2022/08/30 09:22:13;;;;;;;2.67;1.75;;;26.70;99.90;;;;;;5094096;28;20622;-78
2022/08/30 09:24:43;;;;;;;1.55;1.45;;;26.80;99.90;;;;;;5094225;28;20264;-78
2022/08/30 09:27:23;;;;;;;2.42;1.25;;;27.00;99.90;;;;;;5093954;28;20549;-78
2022/08/30 09:29:52;;;;;;;2.30;1.55;;;27.10;99.90;;;;;;5093890;28;20185;-78
2022/08/30 09:32:32;;;;;;;2.00;1.13;;;27.10;99.90;;;;;;5093859;28;20224;-78
2022/08/30 09:34:59;;;;;;;1.60;1.45;;;27.10;99.90;;;;;;5093847;28;20272;-78
2022/08/30 09:37:35;;;;;;;1.35;1.25;;;26.90;99.90;;;;;;5093891;28;20197;-78
2022/08/30 09:40:10;;;;;;;1.33;0.80;;;26.90;99.90;;;;;;5093877;28;20185;-78
2022/08/30 09:42:38;;;;;;;1.67;1.08;;;27.10;99.90;;;;;;5093696;28;20231;-78
2022/08/30 09:45:19;;;;;;;1.90;1.38;;;27.10;99.90;;;;;;5093590;28;20243;-78
2022/08/30 09:47:47;;;;;;;1.63;1.20;;;27.10;99.90;;;;;;5093399;28;20208;-78
2022/08/30 09:50:17;;;;;;;4.25;1.20;;;27.10;99.90;;;;;;5094205;28;20297;-78
2022/08/30 09:53:00;;;;;;;1.23;1.13;;;27.20;99.90;;;;;;5093381;28;20228;-78
2022/08/30 09:55:41;;;;;;;1.58;1.23;;;27.30;99.90;;;;;;5093651;28;20200;-78
2022/08/30 09:58:13;;;;;;;3.85;1.25;;;27.30;99.90;;;;;;5093634;28;20200;-78
2022/08/30 10:00:46;;;;;;;2.38;1.45;;;27.60;99.90;;;;;;5093238;28;20196;-78
2022/08/30 10:03:26;;;;;;;2.05;1.10;;;27.80;99.90;;;;;;5093617;28;20221;-78
2022/08/30 10:06:01;;;;;;;3.35;1.38;;;27.90;99.90;;;;;;5093181;28;20205;-78
2022/08/30 10:08:36;;;;;;;2.17;1.80;;;27.70;99.90;;;;;;5093170;28;20691;-78
2022/08/30 10:11:08;;;;;;;1.33;1.23;;;27.60;99.90;;;;;;5093481;28;20297;-78
2022/08/30 10:13:49;;;;;;;4.60;1.67;;;27.70;99.90;;;;;;5093459;28;20190;-78
2022/08/30 10:16:29;;;;;;;1.33;1.23;;;27.60;99.90;;;;;;5093468;28;20189;-78
2022/08/30 10:19:09;;;;;;;0.90;0.90;;;27.60;99.30;;;;;;5093450;28;20189;-78
2022/08/30 10:21:41;;;;;;;1.67;1.20;;;27.60;99.90;;;;;;5093314;28;20221;-78
2022/08/30 10:24:12;;;;;;;1.40;1.00;;;27.70;99.50;;;;;;5093414;28;20196;-78
2022/08/30 10:26:45;;;;;;;1.63;1.08;;;27.70;99.40;;;;;;5093115;28;20704;-81
2022/08/30 10:29:17;;;;;;;3.22;1.10;;;27.60;99.80;;;;;;5093359;28;20186;-79
2022/08/30 10:31:49;;;;;;;1.42;1.10;;;27.80;98.80;;;;;;5093482;28;20217;-80
2022/08/30 10:34:21;;;;;;;1.55;1.05;;;27.80;97.70;;;;;;5093296;28;20197;-79
2022/08/30 10:36:54;;;;;;;1.15;1.05;;;27.90;98.30;;;;;;5093302;28;20190;-79
2022/08/30 10:39:26;;;;;;;2.63;1.05;;;28.00;98.60;;;;;;5093263;28;20210;-79
2022/08/30 10:42:00;;;;;;;1.50;1.20;;;28.20;97.80;;;;;;5096964;28;20581;-79
2022/08/30 10:44:38;;;;;;;1.67;1.30;;;28.50;96.70;;;;;;5097468;28;20270;-78
2022/08/30 10:47:17;;;;;;;1.10;1.00;;;28.60;96.40;;;;;;5096644;28;20224;-78
2022/08/30 10:49:48;;;;;;;1.38;1.27;;;28.70;95.70;;;;;;5098476;28;20196;-78
2022/08/30 10:52:25;;;;;;;1.65;1.55;;;28.80;93.10;;;;;;5097193;28;20270;-79
2022/08/30 10:54:57;;;;;;;1.30;1.20;;;28.90;93.60;;;;;;5097430;28;20185;-85
2022/08/30 10:57:24;;;;;;;1.55;1.00;;;28.80;92.70;;;;;;5097079;28;20182;-85
2022/08/30 11:00:00;;;;;;;1.27;0.98;;;28.80;93.00;;;;;;5096952;28;20201;-84
2022/08/30 11:02:47;;;;;;;1.52;1.20;;;28.70;92.50;;;;;;5096910;28;20312;-85
2022/08/30 11:05:44;;;;;;;1.30;1.20;;;28.60;91.00;;;;;;5096930;28;20197;-84
2022/08/30 11:08:28;;;;;;;1.63;0.90;;;28.70;90.10;;;;;;5090747;28;20208;-84
2022/08/30 11:11:06;;;;;;;1.05;0.85;;;28.70;89.50;;;;;;5096703;28;20292;-85
2022/08/30 11:13:38;;;;;;;1.10;1.00;;;28.70;91.10;;;;;;5096455;28;20577;-85
2022/08/30 11:16:08;;;;;;;1.45;1.05;;;28.70;91.00;;;;;;5096412;28;20181;-84
2022/08/30 11:18:48;;;;;;;1.63;0.88;;;28.60;90.70;;;;;;5096345;28;20289;-85
2022/08/30 11:21:31;;;;;;;2.88;1.13;;;28.50;91.70;;;;;;5096043;28;20198;-83
2022/08/30 11:24:05;;;;;;;1.40;0.90;;;28.50;91.60;;;;;;5096218;28;20653;-83
2022/08/30 11:26:56;;;;;;;1.13;1.02;;;28.40;91.30;;;;;;5096207;28;20225;-83
2022/08/30 11:29:34;;;;;;;0.73;0.73;;;28.00;91.30;;;;;;5096351;28;20185;-84
2022/08/30 11:32:24;;;;;;;1.40;1.30;;;27.80;92.00;;;;;;5096239;28;20275;-84
2022/08/30 11:34:56;;;;;;;2.60;1.42;;;27.80;92.60;;;;;;5096297;28;20182;-84
2022/08/30 11:37:40;;;;;;;1.00;0.80;;;27.80;91.80;;;;;;5095870;28;20677;-84
2022/08/30 11:40:10;;;;;;;1.02;0.90;;;27.70;92.00;;;;;;5096293;28;20541;-84
2022/08/30 11:42:40;;;;;;;1.40;1.30;;;27.80;91.70;;;;;;5096327;28;20228;-84
2022/08/30 11:45:51;;;;;;;0.90;0.80;;;27.80;92.10;;;;;;5096097;28;20186;-84
2022/08/30 11:48:54;;;;;;;1.50;1.40;;;27.80;91.80;;;;;;5096000;28;20220;-85
2022/08/30 11:51:47;;;;;;;1.45;1.10;;;27.90;91.80;;;;;;5094678;28;20178;-84
2022/08/30 11:54:28;;;;;;;1.15;1.00;;;28.00;91.70;;;;;;5096533;28;20185;-79
2022/08/30 11:57:03;;;;;;;1.52;0.90;;;28.00;91.20;;;;;;5095789;28;20182;-78
2022/08/30 11:59:44;;;;;;;1.13;1.00;;;28.00;91.40;;;;;;5095752;28;20196;-78
2022/08/30 12:02:48;;;;;;;1.65;1.13;;;28.10;91.90;;;;;;5095293;28;20739;-78
2022/08/30 12:05:50;;;;;;;2.20;1.65;;;28.20;90.40;;;;;;5095306;28;20558;-78
2022/08/30 12:08:56;;;;;;;0.90;0.90;;;28.10;90.40;;;;;;5095643;28;20188;-78
2022/08/30 12:11:54;;;;;;;0.82;0.82;;;28.20;90.10;;;;;;5095114;28;20197;-78
2022/08/30 12:14:43;;;;;;;2.88;1.25;;;28.10;90.10;;;;;;5095404;28;20189;-76
2022/08/30 12:20:20;;;;;;;1.02;1.02;;;28.00;90.80;;;;;;5095516;28;20185;-84
2022/08/30 12:22:46;;;;;;;1.10;1.05;;;28.10;90.50;;;;;;5095605;28;20266;-84
2022/08/30 12:25:18;;;;;;;2.47;1.30;;;28.20;90.70;;;;;;5094776;28;20618;-79
2022/08/30 12:27:47;;;;;;;1.45;1.20;;;28.40;90.20;;;;;;5095076;28;20213;-79
2022/08/30 12:30:13;;;;;;;1.20;1.08;;;28.40;90.20;;;;;;5095329;28;20543;-78
2022/08/30 12:32:46;;;;;;;1.80;1.27;;;28.30;89.90;;;;;;5095229;28;20232;-78
2022/08/30 12:35:20;;;;;;;1.63;1.08;;;28.10;90.50;;;;;;5095038;28;20604;-79
2022/08/30 12:37:57;;;;;;;1.75;1.65;;;28.00;90.50;;;;;;5094914;28;20188;-84
2022/08/30 12:40:25;;;;;;;1.52;1.17;;;27.90;91.00;;;;;;5094670;28;20185;-84
2022/08/30 12:42:57;;;;;;;1.45;1.35;;;27.60;90.80;;;;;;5095428;28;20217;-85
2022/08/30 12:45:27;;;;;;;1.42;1.20;;;27.50;91.50;;;;;;5094930;28;20193;-84
2022/08/30 12:47:57;;;;;;;2.38;1.30;;;27.40;91.60;;;;;;5094568;28;20697;-84
2022/08/30 12:50:27;;;;;;;2.17;1.40;;;27.40;91.50;;;;;;5094824;28;20205;-84
2022/08/30 12:53:01;;;;;;;1.58;1.00;;;27.50;90.90;;;;;;5094997;28;20701;-84
2022/08/30 12:55:31;;;;;;;1.20;1.10;;;27.60;90.90;;;;;;5095006;28;20657;-84
2022/08/30 12:58:02;;;;;;;1.20;1.10;;;27.50;90.70;;;;;;5094672;28;20209;-84
2022/08/30 13:00:31;;;;;;;1.40;1.30;;;27.60;90.60;;;;;;5094872;28;20218;-84
2022/08/30 13:03:00;;;;;;;1.02;0.93;;;27.70;90.20;;;;;;5093934;28;20625;-84
2022/08/30 13:05:35;;;;;;;1.75;1.52;;;27.80;90.40;;;;;;5095128;28;20208;-84
2022/08/30 13:08:11;;;;;;;1.92;1.33;;;27.80;89.60;;;;;;5094672;28;20201;-84
2022/08/30 13:10:52;;;;;;;1.70;1.40;;;27.70;89.70;;;;;;5094580;28;20676;-84